Time;durP1;ratioP1;P1;durP2;ratioP2;P2;SDS_P1;SDS_P2;PMS_P1;PMS_P2;Temp;Humidity;BMP_temperature;BMP_pressure;BME280_temperature;BME280_humidity;BME280_pressure;Samples;Min_cycle;Max_cycle;Signal;HPM_P1;HPM_P2
2021/12/06 00:34:19;;;;;;;8.48;4.45;;;2.80;99.90;;;;;;5144438;23;20070;-94
2021/12/06 06:15:29;;;;;;;41.05;16.65;;;2.50;99.90;;;;;;4938358;29;20059;-94
2021/12/06 06:20:50;;;;;;;33.47;13.02;;;2.60;99.90;;;;;;5448232;23;20071;-95
2021/12/06 06:23:17;;;;;;;42.08;15.48;;;2.60;99.90;;;;;;4925021;29;20147;-96
2021/12/06 06:25:43;;;;;;;51.15;17.05;;;2.60;99.90;;;;;;4921502;29;20131;-94
2021/12/06 06:28:10;;;;;;;41.35;14.82;;;2.60;99.90;;;;;;4918879;29;20151;-96
2021/12/06 06:30:58;;;;;;;45.30;15.32;;;2.70;99.90;;;;;;4878383;29;20096;-96
2021/12/06 06:37:07;;;;;;;44.78;16.23;;;2.80;99.90;;;;;;4936221;29;20048;-94
2021/12/06 06:39:34;;;;;;;49.70;17.48;;;2.80;99.90;;;;;;4903964;29;20043;-95
2021/12/06 06:42:28;;;;;;;46.92;17.48;;;2.80;99.90;;;;;;5830909;23;20897;-96
2021/12/06 06:44:58;;;;;;;44.35;17.88;;;2.90;99.90;;;;;;4924940;29;20036;-95
2021/12/06 06:47:24;;;;;;;46.05;17.70;;;2.80;99.90;;;;;;4907463;29;20024;-96
2021/12/06 06:49:50;;;;;;;42.95;17.58;;;2.90;99.90;;;;;;4920064;29;20508;-95
2021/12/06 06:52:19;;;;;;;35.90;15.10;;;2.90;99.90;;;;;;4920294;29;20020;-96
2021/12/06 06:54:55;;;;;;;41.78;16.45;;;2.90;99.90;;;;;;4921130;29;20063;-96
2021/12/06 06:57:24;;;;;;;40.33;15.05;;;2.90;99.90;;;;;;4921854;29;20028;-95
2021/12/06 07:00:13;;;;;;;23.77;10.80;;;2.90;99.90;;;;;;4940670;29;20020;-95
2021/12/06 07:02:41;;;;;;;31.98;10.98;;;2.90;99.90;;;;;;4940780;29;20036;-96
2021/12/06 07:10:34;;;;;;;20.70;8.27;;;3.00;99.90;;;;;;5004294;23;20032;-95
2021/12/06 07:19:35;;;;;;;18.92;8.35;;;3.00;99.90;;;;;;5853010;23;20071;-95
2021/12/06 07:22:01;;;;;;;14.32;5.80;;;3.10;99.90;;;;;;4941888;29;20084;-95
2021/12/06 07:24:27;;;;;;;17.15;7.45;;;3.10;99.90;;;;;;4924302;29;20028;-94
2021/12/06 07:26:54;;;;;;;26.17;8.73;;;3.10;99.90;;;;;;4925018;29;20031;-95
2021/12/06 07:29:26;;;;;;;14.95;7.00;;;3.10;99.90;;;;;;4925395;29;20020;-93
2021/12/06 07:32:00;;;;;;;21.55;8.05;;;3.10;99.90;;;;;;4924584;29;20066;-94
2021/12/06 07:34:27;;;;;;;17.55;6.25;;;3.20;99.90;;;;;;4922995;29;20043;-95
2021/12/06 07:36:54;;;;;;;15.75;6.82;;;3.20;99.90;;;;;;4923358;29;20032;-94
2021/12/06 07:39:37;;;;;;;18.05;7.03;;;3.20;99.90;;;;;;4924792;29;20028;-95
2021/12/06 07:43:11;;;;;;;15.80;6.50;;;3.20;99.90;;;;;;4936350;29;20129;-94
2021/12/06 07:48:29;;;;;;;19.85;7.45;;;3.20;99.90;;;;;;4940049;29;20051;-96
2021/12/06 07:50:59;;;;;;;13.05;6.47;;;3.20;99.90;;;;;;4938309;29;20047;-94
2021/12/06 07:54:02;;;;;;;19.63;7.35;;;3.20;99.90;;;;;;4941153;29;20023;-95
2021/12/06 07:56:57;;;;;;;20.63;7.10;;;3.20;99.90;;;;;;4938718;29;20036;-93
2021/12/06 07:59:27;;;;;;;21.88;8.98;;;3.20;99.90;;;;;;4916355;29;20036;-95
2021/12/06 08:01:53;;;;;;;20.58;6.90;;;3.30;99.90;;;;;;4901555;29;20052;-94
2021/12/06 08:04:19;;;;;;;14.82;7.03;;;3.20;99.90;;;;;;5054307;23;20056;-95
2021/12/06 08:09:21;;;;;;;20.50;7.72;;;3.30;99.90;;;;;;4978855;23;20055;-94
2021/12/06 08:11:51;;;;;;;22.67;6.80;;;3.30;99.90;;;;;;4902314;29;20027;-94
2021/12/06 08:14:17;;;;;;;20.92;7.28;;;3.30;99.90;;;;;;4898049;29;20021;-93
2021/12/06 08:16:44;;;;;;;17.42;7.28;;;3.30;99.90;;;;;;5527741;23;20060;-93
2021/12/06 08:19:15;;;;;;;13.88;6.18;;;3.30;99.90;;;;;;4956310;29;20051;-96
2021/12/06 08:21:41;;;;;;;;;;;3.30;99.90;;;;;;5125705;23;20043;-94
2021/12/06 08:24:15;;;;;;;26.00;7.03;;;3.30;99.90;;;;;;4954613;29;19930;-95
2021/12/06 08:26:47;;;;;;;18.02;6.88;;;3.30;99.90;;;;;;4955470;29;20020;-94
2021/12/06 08:32:57;;;;;;;18.63;6.38;;;3.30;99.90;;;;;;4993028;23;20077;-96
2021/12/06 12:47:13;;;;;;;;;;;;;;;;;;;;;
2021/12/06 12:50:07;;;;;;;0.80;0.50;;;2.80;99.90;;;;;;4936112;29;20304;-96
2021/12/06 12:53:02;;;;;;;2.03;0.88;;;2.80;99.90;;;;;;4907546;29;20039;-96
2021/12/06 12:55:58;;;;;;;0.98;0.75;;;2.90;99.90;;;;;;4903236;29;20052;-96
2021/12/06 13:03:59;;;;;;;6.88;2.47;;;2.90;99.90;;;;;;5175454;23;20075;-95
2021/12/06 13:07:16;;;;;;;3.10;1.88;;;2.90;99.90;;;;;;4955170;29;20039;-95
2021/12/06 13:09:58;;;;;;;3.78;1.90;;;3.00;99.90;;;;;;4961822;28;20037;-95
2021/12/06 13:13:07;;;;;;;4.25;2.42;;;3.00;99.90;;;;;;4947627;29;20026;-96
2021/12/06 13:18:33;;;;;;;1.30;1.15;;;3.00;99.90;;;;;;5045999;23;20088;-94
2021/12/06 13:21:27;;;;;;;3.03;1.17;;;3.10;99.90;;;;;;4949740;29;20032;-95
2021/12/06 13:24:33;;;;;;;1.73;1.60;;;3.10;99.90;;;;;;4929877;29;20032;-95
2021/12/06 13:30:31;;;;;;;5.78;1.50;;;3.20;99.90;;;;;;5925188;23;20027;-95
2021/12/06 13:33:40;;;;;;;1.95;1.00;;;3.20;99.90;;;;;;4960175;29;20050;-95
2021/12/06 13:36:10;;;;;;;3.13;1.40;;;3.20;99.90;;;;;;4974021;28;20043;-95
2021/12/06 14:01:33;;;;;;;2.85;2.00;;;3.40;99.90;;;;;;5102851;23;20148;-94
2021/12/06 20:25:25;;;;;;;3.20;1.15;;;3.30;99.90;;;;;;5844946;23;20879;-96
2021/12/06 20:27:51;;;;;;;;;;;3.30;99.90;;;;;;4909517;23;20057;-94
2021/12/06 20:30:19;;;;;;;3.33;1.60;;;3.30;99.90;;;;;;4886791;29;19916;-94
2021/12/06 20:32:55;;;;;;;6.43;1.73;;;3.30;99.90;;;;;;4890568;29;20033;-95
2021/12/06 20:38:30;;;;;;;4.47;1.88;;;3.20;99.90;;;;;;4907637;29;20070;-93
2021/12/06 20:41:07;;;;;;;9.55;2.10;;;3.10;99.90;;;;;;4877915;29;20037;-94
2021/12/06 20:43:38;;;;;;;6.20;1.40;;;3.10;99.90;;;;;;4857160;29;20041;-94
2021/12/06 20:46:06;;;;;;;1.95;1.35;;;3.00;99.90;;;;;;4874271;29;20032;-95
2021/12/06 20:48:57;;;;;;;3.78;1.60;;;2.90;99.90;;;;;;4865684;29;20025;-95
2021/12/06 20:51:30;;;;;;;3.78;1.58;;;2.80;99.90;;;;;;4874671;29;20063;-94
2021/12/06 20:54:07;;;;;;;5.28;1.67;;;2.80;99.90;;;;;;4874820;29;20040;-94
2021/12/06 20:56:33;;;;;;;3.47;1.52;;;2.80;99.90;;;;;;4878253;29;20037;-94
2021/12/06 20:59:24;;;;;;;2.33;0.80;;;2.80;99.90;;;;;;4878542;29;20085;-95
2021/12/06 21:50:49;;;;;;;10.70;2.85;;;2.80;99.90;;;;;;4984462;23;20077;-96
2021/12/06 21:53:25;;;;;;;18.00;4.03;;;2.90;99.90;;;;;;4895692;29;20037;-95
2021/12/06 21:56:11;;;;;;;11.32;4.25;;;2.90;99.90;;;;;;4896150;29;20063;-95
2021/12/06 21:58:48;;;;;;;16.58;4.15;;;2.90;99.90;;;;;;4899974;29;20021;-94
2021/12/06 22:01:25;;;;;;;7.90;3.95;;;2.90;99.90;;;;;;4880245;29;20045;-95
2021/12/06 22:06:30;;;;;;;20.77;4.47;;;2.90;99.90;;;;;;4917683;29;20033;-95
2021/12/06 22:08:57;;;;;;;16.30;6.78;;;3.00;99.90;;;;;;4885202;29;20032;-95
2021/12/06 22:11:33;;;;;;;15.65;5.68;;;3.00;99.90;;;;;;4903135;29;20025;-94
2021/12/06 22:14:02;;;;;;;13.48;5.45;;;3.00;99.90;;;;;;4909388;29;20135;-95
2021/12/06 22:16:28;;;;;;;12.10;4.38;;;3.00;99.90;;;;;;4919825;29;20028;-94
2021/12/06 22:19:00;;;;;;;9.13;3.67;;;3.10;99.90;;;;;;4902041;29;20039;-94
2021/12/06 22:21:30;;;;;;;13.68;2.80;;;3.10;99.90;;;;;;4903571;29;20021;-96
2021/12/06 22:24:14;;;;;;;;;;;;;;;;;;;;;
2021/12/06 23:33:05;;;;;;;16.10;3.42;;;3.10;99.90;;;;;;5125277;23;20083;-95
2021/12/06 23:36:00;;;;;;;16.27;3.15;;;3.10;99.90;;;;;;4956070;28;20071;-95
